Time;durP1;ratioP1;P1;durP2;ratioP2;P2;SDS_P1;SDS_P2;PMS_P1;PMS_P2;Temp;Humidity;BMP_temperature;BMP_pressure;BME280_temperature;BME280_humidity;BME280_pressure;Samples;Min_cycle;Max_cycle;Signal;HPM_P1;HPM_P2
2021/06/16 00:02:19;;;;;;;10.55;6.42;;;;;;;18.44;74.66;99147.36;1689281;83;21950;-75
2021/06/16 00:04:45;;;;;;;13.05;6.45;;;;;;;18.41;74.86;99152.31;1690993;84;21041;-75
2021/06/16 00:07:12;;;;;;;14.68;6.97;;;;;;;18.39;75.07;99154.06;1692114;84;21089;-73
2021/06/16 00:09:44;;;;;;;11.75;5.97;;;;;;;18.44;75.21;99156.50;1687338;84;21085;-76
2021/06/16 00:12:11;;;;;;;16.55;8.30;;;;;;;18.53;75.20;99162.36;1691623;84;21127;-73
2021/06/16 00:14:41;;;;;;;16.05;8.70;;;;;;;18.56;75.05;99167.20;1690055;83;21090;-73
2021/06/16 00:17:10;;;;;;;18.00;8.75;;;;;;;18.52;75.17;99167.74;1668907;84;21049;-74
2021/06/16 00:19:39;;;;;;;18.10;7.83;;;;;;;18.44;75.46;99169.67;1687508;84;21062;-74
2021/06/16 00:22:08;;;;;;;11.97;6.85;;;;;;;18.41;75.67;99170.44;1691323;84;21034;-74
2021/06/16 00:24:35;;;;;;;13.68;7.20;;;;;;;18.39;75.89;99164.44;1692008;83;21034;-77
2021/06/16 00:27:03;;;;;;;11.40;6.90;;;;;;;18.40;76.05;99162.66;1694273;84;21774;-74
2021/06/16 00:29:36;;;;;;;11.22;6.35;;;;;;;18.42;76.21;99165.87;1691063;84;21543;-74
2021/06/16 00:32:03;;;;;;;8.13;5.72;;;;;;;18.40;76.31;99165.45;1694313;83;21105;-73
2021/06/16 00:34:31;;;;;;;7.70;5.25;;;;;;;18.33;76.60;99167.56;1670631;84;21077;-74
2021/06/16 00:36:57;;;;;;;10.13;5.95;;;;;;;18.27;76.98;99162.09;1692192;83;21019;-74
2021/06/16 00:39:25;;;;;;;14.75;5.80;;;;;;;18.19;77.39;99161.81;1688141;84;21138;-74
2021/06/16 00:41:52;;;;;;;10.85;5.70;;;;;;;18.13;77.79;99158.58;1697238;83;21194;-74
2021/06/16 00:44:18;;;;;;;12.75;6.60;;;;;;;18.13;78.11;99155.80;1701872;83;21178;-75
2021/06/16 00:46:44;;;;;;;12.70;6.53;;;;;;;18.16;78.21;99160.60;1704169;83;21053;-74
2021/06/16 00:49:11;;;;;;;12.15;5.72;;;;;;;18.18;78.35;99163.01;1672857;84;21589;-74
2021/06/16 00:51:41;;;;;;;11.05;6.00;;;;;;;18.21;78.49;99168.63;1631478;86;21170;-74
2021/06/16 00:54:10;;;;;;;14.15;5.95;;;;;;;18.28;78.51;99168.48;1709386;83;21528;-73
2021/06/16 00:56:39;;;;;;;7.80;6.03;;;;;;;18.33;78.34;99175.93;1709754;83;21020;-74
2021/06/16 00:59:08;;;;;;;14.98;6.45;;;;;;;18.33;78.23;99176.52;1684187;83;21528;-75
2021/06/16 01:01:47;;;;;;;12.43;6.40;;;;;;;18.29;78.35;99175.69;1648917;86;21551;-73
2021/06/16 01:04:24;;;;;;;12.43;6.25;;;;;;;18.21;78.52;99167.23;1670939;85;21792;-76
2021/06/16 01:06:56;;;;;;;18.57;6.87;;;;;;;18.17;78.77;99168.38;1709985;83;21672;-74
2021/06/16 01:09:39;;;;;;;13.17;6.30;;;;;;;18.14;78.92;99168.53;1708812;83;21186;-74
2021/06/16 01:12:18;;;;;;;14.33;6.10;;;;;;;18.14;79.05;99167.14;1709903;83;21040;-73
2021/06/16 01:15:07;;;;;;;13.08;7.25;;;;;;;18.07;79.38;99164.23;1708204;83;21116;-74
2021/06/16 01:18:02;;;;;;;11.28;6.12;;;;;;;17.99;79.74;99159.18;1708839;83;21136;-73
2021/06/16 01:20:41;;;;;;;11.88;5.72;;;;;;;17.96;80.01;99157.94;1691783;83;21021;-74
2021/06/16 01:23:16;;;;;;;13.38;6.15;;;;;;;18.07;79.92;99164.23;1687127;83;21010;-74
2021/06/16 01:26:02;;;;;;;9.43;5.85;;;;;;;18.14;79.82;99158.78;1700461;83;21057;-73
2021/06/16 01:28:40;;;;;;;13.35;6.20;;;;;;;18.24;79.81;99167.05;1710012;83;21588;-75
2021/06/16 01:31:19;;;;;;;8.50;5.85;;;;;;;18.30;79.90;99168.91;1653261;84;21023;-74
2021/06/16 01:33:49;;;;;;;13.18;5.30;;;;;;;18.39;79.90;99171.41;1653238;86;21039;-73
2021/06/16 01:36:18;;;;;;;8.15;6.00;;;;;;;18.48;79.69;99178.27;1652595;86;21148;-73
2021/06/16 01:38:51;;;;;;;9.18;5.97;;;;;;;18.57;79.46;99179.95;1657104;86;21071;-74
2021/06/16 01:41:19;;;;;;;11.00;5.30;;;;;;;18.66;79.14;99190.80;1624564;86;21019;-73
2021/06/16 01:43:49;;;;;;;9.30;6.50;;;;;;;18.72;78.88;99194.25;1718337;82;21228;-75
2021/06/16 01:46:18;;;;;;;10.63;5.78;;;;;;;18.83;78.67;99201.92;1718713;82;21053;-75
2021/06/16 01:48:44;;;;;;;11.65;7.28;;;;;;;18.93;78.37;99208.78;1713133;81;21049;-75
2021/06/16 01:51:17;;;;;;;9.25;7.90;;;;;;;18.99;78.20;99211.42;1717823;82;21070;-75
2021/06/16 01:53:44;;;;;;;10.13;7.25;;;;;;;19.06;77.92;99209.28;1716455;82;21065;-75
2021/06/16 01:56:12;;;;;;;11.40;7.08;;;;;;;19.07;78.00;99206.11;1718523;81;21819;-74
2021/06/16 01:58:43;;;;;;;10.53;6.30;;;;;;;18.95;78.28;99204.41;1700553;82;21092;-72
2021/06/16 02:01:15;;;;;;;12.53;7.10;;;;;;;18.89;78.59;99212.12;1719042;82;21054;-74
2021/06/16 02:03:41;;;;;;;11.18;7.40;;;;;;;18.91;78.75;99218.94;1719466;82;20994;-74
2021/06/16 02:06:08;;;;;;;9.28;7.90;;;;;;;18.94;78.58;99220.96;1717100;82;21604;-74
2021/06/16 02:08:37;;;;;;;10.88;7.17;;;;;;;19.01;78.32;99224.99;1695898;82;21061;-73
2021/06/16 02:11:06;;;;;;;11.75;7.80;;;;;;;19.05;78.23;99226.65;1709282;82;21022;-73
2021/06/16 02:13:46;;;;;;;11.57;7.50;;;;;;;19.10;78.24;99215.72;1701114;82;21486;-73
2021/06/16 02:16:14;;;;;;;12.45;7.30;;;;;;;18.98;78.44;99217.63;1722533;82;21538;-73
2021/06/16 02:18:47;;;;;;;11.22;7.12;;;;;;;18.88;79.00;99215.53;1716424;82;21080;-72
2021/06/16 02:24:03;;;;;;;16.82;8.68;;;;;;;18.94;78.93;99216.77;1715749;82;21520;-73
2021/06/16 02:26:31;;;;;;;9.23;7.53;;;;;;;18.98;78.78;99218.20;1717291;82;21092;-73
2021/06/16 02:29:08;;;;;;;9.10;7.42;;;;;;;19.00;78.77;99222.00;1717818;81;21479;-73
2021/06/16 02:31:37;;;;;;;9.05;7.40;;;;;;;19.01;78.82;99218.02;1715400;82;21119;-75
2021/06/16 02:34:03;;;;;;;10.35;8.00;;;;;;;19.02;78.69;99221.03;1716658;82;21135;-72
2021/06/16 02:36:37;;;;;;;11.85;8.03;;;;;;;19.03;78.67;99226.23;1718446;81;21120;-73
2021/06/16 02:39:06;;;;;;;10.88;8.08;;;;;;;18.95;78.81;99233.72;1714700;82;21398;-73
2021/06/16 02:41:35;;;;;;;9.08;7.47;;;;;;;18.82;79.09;99239.37;1718456;81;21085;-73
2021/06/16 02:44:05;;;;;;;11.83;7.90;;;;;;;18.67;79.57;99237.84;1712966;82;21029;-74
2021/06/16 02:46:32;;;;;;;11.05;7.50;;;;;;;18.66;80.02;99233.46;1717162;82;21556;-74
2021/06/16 02:48:59;;;;;;;12.63;8.35;;;;;;;18.61;80.13;99237.98;1718454;82;21064;-73
2021/06/16 02:51:32;;;;;;;9.00;7.00;;;;;;;18.63;80.47;99232.02;1718644;80;21010;-73
2021/06/16 02:53:59;;;;;;;11.38;7.08;;;;;;;18.65;80.52;99228.23;1717633;81;21037;-74
2021/06/16 02:56:27;;;;;;;9.33;6.80;;;;;;;18.68;80.47;99234.47;1699120;82;21014;-73
2021/06/16 02:58:58;;;;;;;9.18;7.25;;;;;;;18.73;80.29;99239.09;1697495;82;21160;-73
2021/06/16 03:01:29;;;;;;;8.85;7.08;;;;;;;18.73;80.01;99234.13;1714837;82;21054;-72
2021/06/16 03:04:01;;;;;;;10.13;7.25;;;;;;;18.70;80.02;99229.28;1716093;82;21617;-73
2021/06/16 03:06:29;;;;;;;13.62;7.50;;;;;;;18.64;80.28;99224.66;1719213;82;21066;-72
2021/06/16 03:09:00;;;;;;;9.25;6.95;;;;;;;18.63;80.55;99227.84;1717792;82;21053;-73
2021/06/16 03:11:30;;;;;;;10.68;7.37;;;;;;;18.65;80.80;99222.66;1721606;81;22081;-73
2021/06/16 03:13:56;;;;;;;9.43;7.20;;;;;;;18.68;80.77;99227.50;1717707;81;21009;-73
2021/06/16 03:16:24;;;;;;;7.53;6.72;;;;;;;18.69;80.85;99220.72;1720635;82;21061;-74
2021/06/16 03:18:51;;;;;;;11.45;8.45;;;;;;;18.70;80.89;99224.52;1718083;82;21462;-69
2021/06/16 03:21:18;;;;;;;10.45;8.00;;;;;;;18.71;80.93;99221.92;1715047;82;21668;-71
2021/06/16 03:23:47;;;;;;;9.18;7.50;;;;;;;18.75;80.63;99215.60;1716801;82;21121;-72
2021/06/16 03:26:15;;;;;;;11.30;8.53;;;;;;;18.80;80.26;99219.44;1717867;80;21038;-71
2021/06/16 03:28:43;;;;;;;12.03;8.40;;;;;;;18.82;79.97;99226.23;1720664;82;21005;-72
2021/06/16 03:31:11;;;;;;;13.50;8.73;;;;;;;18.84;79.88;99228.05;1716807;82;21556;-71
2021/06/16 03:33:41;;;;;;;9.58;7.70;;;;;;;18.84;79.76;99228.63;1696568;82;21041;-72
2021/06/16 03:36:07;;;;;;;13.10;8.28;;;;;;;18.83;79.76;99229.22;1696851;82;21535;-71
2021/06/16 03:38:38;;;;;;;10.40;8.58;;;;;;;18.87;79.57;99231.27;1717743;82;21539;-71
2021/06/16 03:41:07;;;;;;;12.37;8.10;;;;;;;18.89;79.32;99229.68;1717012;82;21580;-71
2021/06/16 03:43:35;;;;;;;10.63;8.70;;;;;;;18.92;79.14;99234.48;1717255;81;21632;-71
2021/06/16 03:46:08;;;;;;;12.50;8.43;;;;;;;18.94;79.26;99234.91;1705452;82;20997;-72
2021/06/16 03:48:38;;;;;;;17.67;9.33;;;;;;;18.93;79.46;99241.70;1717248;82;21113;-71
2021/06/16 03:51:05;;;;;;;15.38;9.30;;;;;;;18.90;79.83;99244.45;1713203;82;21625;-73
2021/06/16 03:53:41;;;;;;;18.27;8.23;;;;;;;18.88;80.18;99239.25;1696293;82;21100;-72
2021/06/16 03:56:09;;;;;;;12.10;8.40;;;;;;;18.91;80.42;99248.83;1718967;82;20986;-71
2021/06/16 03:58:40;;;;;;;11.30;8.15;;;;;;;18.92;80.71;99253.25;1697916;82;21201;-71
2021/06/16 04:01:13;;;;;;;13.95;8.53;;;;;;;18.95;81.00;99256.05;1719482;82;21096;-72
2021/06/16 04:03:40;;;;;;;14.75;8.93;;;;;;;18.94;81.09;99259.22;1718575;82;21493;-72
2021/06/16 04:06:07;;;;;;;11.48;9.30;;;;;;;18.96;81.16;99261.86;1716300;81;21092;-73
2021/06/16 04:08:37;;;;;;;14.65;8.40;;;;;;;18.98;81.39;99260.08;1719162;81;22018;-76
2021/06/16 04:11:03;;;;;;;15.28;8.48;;;;;;;19.01;81.19;99264.07;1711745;82;21515;-75
2021/06/16 04:13:30;;;;;;;12.68;7.22;;;;;;;19.01;81.26;99264.88;1715996;82;21799;-72
2021/06/16 04:15:57;;;;;;;10.70;6.25;;;;;;;19.09;81.30;99271.32;1697611;81;21541;-72
2021/06/16 04:18:29;;;;;;;10.72;6.28;;;;;;;19.18;80.57;99264.88;1718520;82;21045;-73
2021/06/16 04:20:58;;;;;;;7.10;5.85;;;;;;;19.29;79.85;99271.14;1716238;82;21523;-73
2021/06/16 04:23:26;;;;;;;10.78;6.53;;;;;;;19.39;79.08;99276.02;1715894;82;21546;-73
2021/06/16 04:25:54;;;;;;;7.00;5.95;;;;;;;19.46;78.33;99269.08;1695866;82;21107;-70
2021/06/16 04:28:23;;;;;;;12.95;6.53;;;;;;;19.55;77.79;99266.57;1725728;81;21065;-73
2021/06/16 04:30:54;;;;;;;8.90;5.40;;;;;;;19.63;77.15;99265.43;1714006;82;21162;-72
2021/06/16 04:33:21;;;;;;;14.23;5.80;;;;;;;19.71;76.43;99263.47;1715747;82;21054;-72
2021/06/16 04:35:47;;;;;;;15.93;5.47;;;;;;;19.78;75.80;99271.91;1717396;82;21088;-72
2021/06/16 04:38:14;;;;;;;8.15;5.47;;;;;;;19.87;75.17;99267.38;1717659;82;21053;-74
2021/06/16 04:40:45;;;;;;;7.30;5.40;;;;;;;19.94;74.48;99270.19;1718930;81;21506;-72
2021/06/16 04:43:31;;;;;;;9.50;6.20;;;;;;;20.02;74.08;99276.64;1702725;82;21021;-72
2021/06/16 04:46:03;;;;;;;6.42;5.80;;;;;;;20.14;73.33;99280.32;1690098;84;21053;-72
2021/06/16 04:48:32;;;;;;;10.58;5.55;;;;;;;20.27;73.00;99279.38;1694299;84;21025;-72
2021/06/16 04:54:10;;;;;;;14.63;5.60;;;;;;;20.48;71.69;99273.67;1689727;84;21109;-75
2021/06/16 04:56:42;;;;;;;13.22;6.12;;;;;;;20.58;71.44;99279.91;1691640;84;21119;-74
2021/06/16 04:59:09;;;;;;;11.95;5.75;;;;;;;20.64;71.13;99269.92;1692541;84;21463;-73
2021/06/16 05:01:38;;;;;;;7.37;5.47;;;;;;;20.67;70.22;99266.36;1659451;84;20995;-73
2021/06/16 05:04:06;;;;;;;11.45;5.55;;;;;;;20.70;69.64;99266.14;1636597;85;21088;-72
2021/06/16 05:06:39;;;;;;;9.43;6.10;;;;;;;20.74;69.70;99264.77;1685286;84;21021;-72
2021/06/16 05:09:09;;;;;;;15.28;6.12;;;;;;;20.78;69.03;99269.16;1675975;83;21049;-73
2021/06/16 05:11:36;;;;;;;9.18;6.08;;;;;;;20.78;69.07;99270.56;1696620;83;21083;-73
2021/06/16 05:14:03;;;;;;;10.40;5.37;;;;;;;20.83;68.89;99272.78;1689810;84;21031;-72
2021/06/16 05:16:32;;;;;;;9.23;5.60;;;;;;;20.86;68.61;99281.20;1671076;84;21112;-73
2021/06/16 05:19:00;;;;;;;20.08;5.95;;;;;;;20.84;68.12;99286.38;1695893;83;21035;-73
2021/06/16 05:21:28;;;;;;;13.60;5.47;;;;;;;20.81;68.43;99281.58;1671628;84;21100;-74
2021/06/16 05:24:02;;;;;;;7.53;5.92;;;;;;;20.84;68.31;99286.97;1660268;84;21595;-72
2021/06/16 05:26:31;;;;;;;10.53;5.87;;;;;;;20.90;68.10;99287.59;1663398;84;21014;-75
2021/06/16 05:29:00;;;;;;;18.00;6.10;;;;;;;20.94;68.15;99291.02;1670515;85;21136;-71
2021/06/16 05:31:27;;;;;;;13.35;5.20;;;;;;;21.01;68.36;99291.03;1674961;83;21159;-72
2021/06/16 05:33:53;;;;;;;6.75;5.28;;;;;;;21.08;68.26;99293.86;1691693;83;21116;-73
2021/06/16 05:36:20;;;;;;;8.78;5.33;;;;;;;21.08;67.50;99299.45;1671397;84;21037;-73
2021/06/16 05:38:48;;;;;;;7.12;5.25;;;;;;;21.09;67.93;99296.84;1670518;85;21494;-72
2021/06/16 05:41:14;;;;;;;12.25;5.58;;;;;;;21.16;67.79;99300.26;1661172;84;22257;-72
2021/06/16 05:43:42;;;;;;;10.65;5.47;;;;;;;21.24;67.77;99299.06;1668948;83;21070;-72
2021/06/16 05:46:11;;;;;;;18.62;5.65;;;;;;;21.33;67.52;99298.67;1687114;84;21673;-72
2021/06/16 05:48:39;;;;;;;13.35;5.60;;;;;;;21.36;67.30;99298.48;1678453;83;21056;-72
2021/06/16 05:51:08;;;;;;;13.90;6.22;;;;;;;21.38;67.42;99299.67;1707084;83;22172;-74
2021/06/16 05:53:47;;;;;;;11.25;5.60;;;;;;;21.45;67.36;99299.47;1706388;83;21116;-76
2021/06/16 05:56:13;;;;;;;13.28;5.37;;;;;;;21.52;66.94;99302.28;1708207;83;21060;-74
2021/06/16 05:58:41;;;;;;;16.80;5.35;;;;;;;21.54;66.77;99302.69;1711843;83;21529;-74
2021/06/16 06:01:10;;;;;;;8.38;5.53;;;;;;;21.56;67.08;99307.30;1708385;83;21005;-75
2021/06/16 06:03:42;;;;;;;17.77;5.97;;;;;;;21.64;67.47;99312.28;1708227;81;21863;-73
2021/06/16 06:06:19;;;;;;;33.30;6.72;;;;;;;21.67;66.95;99309.27;1712207;81;21100;-72
2021/06/16 06:08:49;;;;;;;14.47;5.45;;;;;;;21.75;67.08;99311.66;1690193;83;21596;-73
2021/06/16 06:11:24;;;;;;;10.72;5.55;;;;;;;21.87;67.00;99315.30;1699639;82;21068;-72
2021/06/16 06:14:25;;;;;;;23.60;5.53;;;;;;;21.98;66.65;99311.06;1694190;83;21041;-72
2021/06/16 06:16:51;;;;;;;15.28;5.03;;;;;;;22.08;66.53;99313.05;1711689;83;21065;-72
2021/06/16 06:19:21;;;;;;;8.35;4.47;;;;;;;22.16;65.65;99313.81;1691395;83;22006;-73
2021/06/16 06:21:50;;;;;;;7.85;4.85;;;;;;;22.18;65.25;99312.81;1695686;83;21052;-72
2021/06/16 06:24:18;;;;;;;9.68;4.95;;;;;;;22.18;65.07;99316.24;1691384;83;21581;-72
2021/06/16 06:26:48;;;;;;;11.40;5.22;;;;;;;22.12;64.56;99316.66;1688269;85;21112;-71
2021/06/16 06:29:16;;;;;;;13.22;5.20;;;;;;;22.09;64.54;99323.05;1700748;81;21013;-73
2021/06/16 06:31:48;;;;;;;13.83;4.92;;;;;;;22.04;64.29;99326.27;1714623;81;21593;-73
2021/06/16 06:34:14;;;;;;;18.37;5.72;;;;;;;22.00;63.91;99328.30;1689760;84;21539;-74
2021/06/16 06:36:43;;;;;;;9.03;5.15;;;;;;;21.96;63.79;99327.48;1716778;83;21063;-73
2021/06/16 06:39:10;;;;;;;20.95;5.17;;;;;;;21.97;63.99;99323.50;1717055;83;21015;-73
2021/06/16 06:41:37;;;;;;;15.28;5.12;;;;;;;22.01;63.93;99325.08;1724872;81;21140;-73
2021/06/16 06:44:05;;;;;;;5.97;4.17;;;;;;;22.08;63.33;99316.45;1713034;81;21629;-75
2021/06/16 06:46:36;;;;;;;8.08;4.37;;;;;;;22.17;62.75;99325.84;1662450;84;21016;-73
2021/06/16 06:49:05;;;;;;;13.90;4.87;;;;;;;22.27;62.31;99327.02;1739807;81;20999;-72
2021/06/16 06:51:35;;;;;;;9.95;4.78;;;;;;;22.31;61.50;99330.03;1718417;82;21077;-74
2021/06/16 06:54:01;;;;;;;13.65;4.70;;;;;;;22.30;60.95;99324.20;1713523;83;21108;-73
2021/06/16 06:56:28;;;;;;;7.20;4.25;;;;;;;22.32;61.03;99326.59;1715495;83;21986;-74
2021/06/16 06:58:54;;;;;;;30.45;5.97;;;;;;;22.41;61.49;99323.37;1728866;81;21035;-71
2021/06/16 07:04:08;;;;;;;10.50;4.40;;;;;;;22.73;61.08;99328.89;1700413;83;21068;-72
2021/06/16 07:06:36;;;;;;;8.68;4.78;;;;;;;22.91;60.83;99329.38;1691222;83;21105;-74
2021/06/16 07:09:04;;;;;;;8.80;4.85;;;;;;;22.94;59.81;99329.17;1690077;83;21944;-76
2021/06/16 07:11:34;;;;;;;11.28;4.37;;;;;;;22.96;60.90;99329.58;1687316;83;21029;-73
2021/06/16 07:14:01;;;;;;;11.53;4.87;;;;;;;23.05;60.89;99324.28;1688486;81;21133;-72
2021/06/16 07:16:33;;;;;;;13.18;4.87;;;;;;;23.18;60.75;99319.60;1704675;83;21085;-71
2021/06/16 07:19:00;;;;;;;15.45;4.40;;;;;;;23.32;60.23;99325.73;1672595;84;21108;-71
2021/06/16 07:21:30;;;;;;;17.87;4.67;;;;;;;23.39;59.11;99331.28;1688561;84;21060;-73
2021/06/16 07:23:56;;;;;;;7.35;4.45;;;;;;;23.39;59.15;99332.69;1740269;81;21521;-73
2021/06/16 07:26:38;;;;;;;13.15;3.98;;;;;;;23.44;58.82;99339.92;1690964;83;21026;-75
2021/06/16 07:29:17;;;;;;;15.28;5.15;;;;;;;23.41;58.67;99335.91;1687633;82;21085;-72
2021/06/16 07:32:07;;;;;;;13.85;4.60;;;;;;;23.46;59.45;99338.88;1624563;87;21134;-72
2021/06/16 07:34:35;;;;;;;11.22;4.83;;;;;;;23.51;59.72;99335.63;1677814;84;21151;-75
2021/06/16 07:37:06;;;;;;;7.20;4.33;;;;;;;23.55;58.76;99339.83;1647155;84;21056;-72
2021/06/16 07:39:34;;;;;;;17.12;4.35;;;;;;;23.42;58.20;99343.13;1715155;83;20987;-73
2021/06/16 07:42:10;;;;;;;8.65;4.37;;;;;;;23.37;59.07;99346.97;1714434;82;21019;-71
2021/06/16 07:44:38;;;;;;;12.33;4.47;;;;;;;23.36;58.51;99339.13;1721920;81;20996;-74
2021/06/16 07:47:04;;;;;;;8.58;4.65;;;;;;;23.32;58.50;99342.59;1690884;82;21561;-72
2021/06/16 07:49:32;;;;;;;17.75;4.58;;;;;;;23.31;59.04;99340.38;1711620;83;21045;-72
2021/06/16 07:52:01;;;;;;;16.73;5.25;;;;;;;23.33;58.41;99348.39;1694326;84;21054;-72
2021/06/16 07:54:32;;;;;;;21.65;5.22;;;;;;;23.29;57.21;99347.02;1678216;83;21121;-73
2021/06/16 07:57:00;;;;;;;5.05;4.30;;;;;;;23.23;57.69;99343.05;1670474;85;21117;-72
2021/06/16 07:59:29;;;;;;;4.72;4.25;;;;;;;23.25;58.03;99342.03;1686328;82;20980;-72
2021/06/16 08:01:58;;;;;;;5.97;4.10;;;;;;;23.21;58.87;99346.27;1717648;83;21035;-72
2021/06/16 08:04:27;;;;;;;10.13;4.25;;;;;;;23.17;59.53;99343.27;1713625;82;22241;-71
2021/06/16 08:06:54;;;;;;;5.65;4.08;;;;;;;23.14;59.64;99344.91;1692155;82;21037;-71
2021/06/16 08:09:27;;;;;;;8.78;4.50;;;;;;;23.20;59.67;99342.47;1692834;84;21112;-72
2021/06/16 08:11:55;;;;;;;7.25;4.30;;;;;;;23.31;59.17;99344.59;1670340;84;21113;-71
2021/06/16 08:14:24;;;;;;;13.00;4.17;;;;;;;23.37;58.71;99348.38;1706595;83;20994;-72
2021/06/16 08:16:51;;;;;;;8.08;4.08;;;;;;;23.43;58.23;99347.55;1714157;82;21104;-73
2021/06/16 08:19:18;;;;;;;7.30;4.33;;;;;;;23.55;58.58;99350.47;1693674;83;21025;-72
2021/06/16 08:21:47;;;;;;;3.70;3.15;;;;;;;23.70;57.83;99351.74;1651432;84;21021;-71
2021/06/16 08:24:14;;;;;;;11.33;4.08;;;;;;;23.84;57.22;99350.83;1662311;82;21631;-71
2021/06/16 08:26:43;;;;;;;10.05;4.22;;;;;;;23.88;55.82;99349.39;1714328;83;21041;-73
2021/06/16 08:29:13;;;;;;;14.05;3.25;;;;;;;23.98;56.11;99349.91;1697530;83;21104;-73
2021/06/16 08:31:46;;;;;;;7.60;3.25;;;;;;;24.01;54.19;99356.09;1649111;86;21165;-74
2021/06/16 08:34:21;;;;;;;5.22;3.30;;;;;;;24.06;54.05;99358.45;1657719;86;21003;-72
2021/06/16 08:39:25;;;;;;;14.10;3.22;;;;;;;23.95;54.09;99363.39;1705539;82;20996;-74
2021/06/16 08:41:53;;;;;;;13.10;3.22;;;;;;;23.93;53.60;99368.03;1708253;83;21096;-74
2021/06/16 08:44:21;;;;;;;11.38;3.17;;;;;;;23.92;53.94;99369.23;1678767;83;20997;-75
2021/06/16 08:46:50;;;;;;;12.82;2.75;;;;;;;23.90;52.23;99370.88;1636706;84;21067;-73
2021/06/16 08:49:22;;;;;;;10.28;2.47;;;;;;;23.81;51.34;99376.97;1680333;83;21903;-73
2021/06/16 08:51:48;;;;;;;7.33;2.37;;;;;;;23.80;51.54;99374.77;1666929;84;21049;-73
2021/06/16 08:54:17;;;;;;;7.70;2.52;;;;;;;23.79;50.95;99373.77;1648801;85;21008;-74
2021/06/16 08:56:44;;;;;;;12.07;2.52;;;;;;;23.81;51.61;99372.16;1686308;84;21372;-73
2021/06/16 08:59:13;;;;;;;8.70;3.22;;;;;;;23.88;51.88;99373.30;1693665;82;21063;-77
2021/06/16 09:01:42;;;;;;;6.03;2.75;;;;;;;23.92;52.34;99369.23;1691166;82;21172;-74
2021/06/16 09:04:11;;;;;;;5.92;2.80;;;;;;;23.95;52.57;99372.61;1692131;84;21045;-74
2021/06/16 09:06:41;;;;;;;7.80;2.87;;;;;;;23.95;52.20;99366.98;1695312;84;21521;-76
2021/06/16 09:09:07;;;;;;;6.83;2.92;;;;;;;23.97;52.06;99370.79;1691324;84;21026;-74
2021/06/16 09:11:47;;;;;;;13.60;2.75;;;;;;;23.97;52.01;99377.82;1689759;84;21085;-72
2021/06/16 09:14:19;;;;;;;8.18;2.70;;;;;;;23.96;52.00;99376.23;1702842;81;21158;-76
2021/06/16 09:16:53;;;;;;;8.80;2.12;;;;;;;23.99;51.77;99379.62;1695157;83;21041;-75
2021/06/16 09:19:26;;;;;;;5.33;1.90;;;;;;;24.04;50.59;99378.36;1691969;83;21507;-73
2021/06/16 09:22:04;;;;;;;29.27;3.30;;;;;;;24.07;49.65;99378.95;1703178;83;21075;-74
2021/06/16 09:24:47;;;;;;;15.78;1.98;;;;;;;24.09;49.47;99382.76;1727264;81;21326;-72
2021/06/16 09:27:50;;;;;;;7.65;2.47;;;;;;;24.08;47.90;99376.33;1675792;83;21214;-76
2021/06/16 09:30:25;;;;;;;15.95;1.70;;;;;;;24.05;47.69;99377.94;1680111;83;21007;-72
2021/06/16 09:32:57;;;;;;;12.63;2.25;;;;;;;24.06;47.15;99368.30;1697073;81;21125;-73
2021/06/16 09:35:37;;;;;;;7.87;1.80;;;;;;;24.21;48.02;99370.98;1693374;82;21037;-72
2021/06/16 09:38:08;;;;;;;8.18;2.40;;;;;;;24.42;48.60;99377.61;1693238;84;21076;-72
2021/06/16 09:40:43;;;;;;;10.45;2.15;;;;;;;24.66;48.18;99374.33;1693000;82;21112;-73
2021/06/16 09:43:16;;;;;;;2.95;1.70;;;;;;;24.88;48.15;99375.45;1695113;84;21076;-72
2021/06/16 09:45:45;;;;;;;5.50;1.85;;;;;;;25.08;46.84;99371.21;1696003;83;21493;-73
2021/06/16 09:48:36;;;;;;;5.78;2.30;;;;;;;25.24;48.21;99367.14;1695950;84;21021;-73
2021/06/16 09:51:25;;;;;;;21.73;2.55;;;;;;;25.34;46.20;99368.80;1695926;84;21619;-71
2021/06/16 09:58:17;;;;;;;6.22;2.17;;;;;;;25.49;47.24;99365.95;1710093;83;21093;-74
2021/06/16 10:05:15;;;;;;;17.45;2.08;;;;;;;25.81;46.91;99362.43;1676289;84;20242;-73
2021/06/16 10:07:48;;;;;;;14.15;2.85;;;;;;;25.84;46.40;99369.26;1681071;84;21556;-72
2021/06/16 10:10:16;;;;;;;7.67;2.65;;;;;;;25.75;45.98;99359.93;1678075;83;21528;-75
2021/06/16 10:12:47;;;;;;;26.48;4.30;;;;;;;25.75;46.74;99355.09;1715689;81;21068;-71
2021/06/16 10:15:24;;;;;;;15.00;2.62;;;;;;;25.85;47.12;99356.73;1706105;81;21068;-71
2021/06/16 10:24:50;;;;;;;6.17;2.17;;;;;;;25.70;46.38;99354.78;1648487;86;20219;-73
2021/06/16 10:27:33;;;;;;;13.88;2.15;;;;;;;25.67;46.40;99345.77;1622218;86;21049;-73
2021/06/16 10:30:04;;;;;;;14.87;2.02;;;;;;;25.68;46.68;99345.34;1649466;84;21072;-73
2021/06/16 10:32:47;;;;;;;7.67;1.67;;;;;;;25.74;46.97;99347.84;1650756;86;21068;-72
2021/06/16 10:35:33;;;;;;;8.63;1.90;;;;;;;25.78;46.43;99346.37;1654638;84;21088;-70
2021/06/16 10:38:16;;;;;;;8.03;2.40;;;;;;;25.73;46.81;99346.26;1650599;85;21192;-71
2021/06/16 10:40:54;;;;;;;3.92;1.60;;;;;;;25.72;46.38;99342.46;1641301;86;21066;-72
2021/06/16 10:43:29;;;;;;;8.70;2.20;;;;;;;25.81;45.59;99344.73;1655907;84;21100;-73
2021/06/16 10:46:13;;;;;;;5.55;2.15;;;;;;;25.87;46.19;99340.18;1671422;83;21101;-71
2021/06/16 10:48:55;;;;;;;4.40;1.52;;;;;;;25.95;45.08;99345.87;1693125;84;21616;-72
2021/06/16 10:51:38;;;;;;;3.17;1.45;;;;;;;26.01;45.34;99348.41;1691327;83;21572;-71
2021/06/16 10:54:23;;;;;;;16.25;2.10;;;;;;;26.13;45.80;99352.62;1697586;83;20994;-71
2021/06/16 10:56:59;;;;;;;9.75;1.60;;;;;;;26.24;46.34;99341.72;1709465;83;21093;-75
2021/06/16 10:59:53;;;;;;;4.30;1.70;;;;;;;26.24;43.64;99356.62;1698015;83;21021;-72
2021/06/16 11:02:34;;;;;;;5.10;1.52;;;;;;;26.00;43.66;99360.09;1706410;83;21109;-73
2021/06/16 11:05:28;;;;;;;3.12;1.55;;;;;;;25.96;44.59;99352.33;1694099;83;21164;-74
2021/06/16 11:07:55;;;;;;;6.97;1.70;;;;;;;26.01;43.78;99351.22;1704563;83;21100;-73
2021/06/16 11:10:23;;;;;;;17.12;3.92;;;;;;;25.97;44.99;99347.66;1643722;86;21040;-72
2021/06/16 11:12:53;;;;;;;5.17;1.95;;;;;;;26.03;44.49;99351.39;1680893;83;21084;-73
2021/06/16 11:15:30;;;;;;;10.60;1.90;;;;;;;26.07;43.56;99360.58;1704973;83;21021;-72
2021/06/16 11:18:02;;;;;;;6.17;1.52;;;;;;;26.15;44.23;99353.59;1703709;81;21080;-72
2021/06/16 11:20:36;;;;;;;9.03;2.30;;;;;;;26.27;43.82;99351.36;1697158;83;21013;-73
2021/06/16 11:23:04;;;;;;;11.43;2.27;;;;;;;26.36;43.31;99347.36;1690487;82;21054;-73
2021/06/16 11:25:35;;;;;;;6.47;2.00;;;;;;;26.37;43.35;99351.80;1690156;83;21143;-72
2021/06/16 11:28:29;;;;;;;6.25;1.80;;;;;;;26.43;43.24;99347.22;1650097;86;21073;-73
2021/06/16 11:31:01;;;;;;;11.25;1.98;;;;;;;26.34;42.54;99353.44;1703307;83;21565;-72
2021/06/16 11:33:34;;;;;;;10.45;1.70;;;;;;;26.25;43.06;99349.75;1705856;81;21029;-72
2021/06/16 11:36:12;;;;;;;4.62;1.20;;;;;;;26.22;43.08;99347.02;1702638;83;21064;-72
2021/06/16 11:38:43;;;;;;;4.83;1.30;;;;;;;26.30;42.86;99346.25;1704911;83;21044;-71
2021/06/16 11:41:17;;;;;;;8.95;1.50;;;;;;;26.36;41.86;99343.93;1693058;83;21561;-73
2021/06/16 11:44:13;;;;;;;2.45;0.90;;;;;;;26.42;41.40;99342.02;1701326;83;21152;-73
2021/06/16 11:46:44;;;;;;;8.60;1.35;;;;;;;26.37;40.55;99336.27;1718267;83;21934;-75
2021/06/16 11:49:25;;;;;;;4.33;1.20;;;;;;;26.37;42.60;99339.09;1709367;83;33409;-73
2021/06/16 11:52:01;;;;;;;15.55;2.45;;;;;;;26.44;42.34;99338.92;1701029;83;21127;-72
2021/06/16 11:54:35;;;;;;;11.87;1.40;;;;;;;26.58;41.84;99341.30;1721212;81;21036;-72
2021/06/16 11:57:21;;;;;;;11.18;1.40;;;;;;;26.64;41.81;99341.56;1723325;81;21160;-72
2021/06/16 11:59:49;;;;;;;3.12;1.30;;;;;;;26.68;42.05;99335.23;1708124;83;28643;-71
2021/06/16 12:02:26;;;;;;;9.78;1.52;;;;;;;26.81;41.26;99330.51;1708536;83;21553;-75
2021/06/16 12:05:08;;;;;;;2.05;1.22;;;;;;;26.90;40.45;99325.69;1695683;81;21543;-73
2021/06/16 12:07:52;;;;;;;14.70;5.22;;;;;;;26.83;41.41;99328.66;1694655;83;21034;-70
2021/06/16 12:10:42;;;;;;;6.85;1.70;;;;;;;26.67;38.83;99333.02;1685586;83;21008;-72
2021/06/16 12:13:10;;;;;;;11.43;1.80;;;;;;;26.56;40.08;99326.81;1766079;80;20996;-73
2021/06/16 12:15:38;;;;;;;10.53;3.92;;;;;;;26.59;40.31;99323.11;1710260;80;21039;-73
2021/06/16 12:18:10;;;;;;;9.10;3.60;;;;;;;26.69;41.48;99324.11;1763768;80;21039;-73